sensor_id;sensor_type;location;lat;lon;timestamp;P1;durP1;ratioP1;P2;durP2;ratioP2
29344;SDS011;16339;48.748;2.222;2023-08-31T00:01:18;7.10;;;3.88;;
29344;SDS011;16339;48.748;2.222;2023-08-31T00:03:49;11.38;;;3.97;;
29344;SDS011;16339;48.748;2.222;2023-08-31T00:06:19;10.15;;;3.80;;
29344;SDS011;16339;48.748;2.222;2023-08-31T00:08:48;8.20;;;3.90;;
29344;SDS011;16339;48.748;2.222;2023-08-31T00:11:17;11.32;;;3.90;;
29344;SDS011;16339;48.748;2.222;2023-08-31T00:13:46;10.75;;;4.00;;
29344;SDS011;16339;48.748;2.222;2023-08-31T00:16:15;7.43;;;3.55;;
29344;SDS011;16339;48.748;2.222;2023-08-31T00:18:43;9.45;;;3.67;;
29344;SDS011;16339;48.748;2.222;2023-08-31T00:21:15;10.10;;;4.13;;
29344;SDS011;16339;48.748;2.222;2023-08-31T00:23:44;8.75;;;3.55;;
29344;SDS011;16339;48.748;2.222;2023-08-31T00:26:13;13.52;;;3.70;;
29344;SDS011;16339;48.748;2.222;2023-08-31T00:28:42;10.85;;;3.78;;
29344;SDS011;16339;48.748;2.222;2023-08-31T00:31:11;7.90;;;3.67;;
29344;SDS011;16339;48.748;2.222;2023-08-31T00:33:40;10.18;;;3.72;;
29344;SDS011;16339;48.748;2.222;2023-08-31T00:36:08;10.90;;;3.75;;
29344;SDS011;16339;48.748;2.222;2023-08-31T00:38:41;7.40;;;3.38;;
29344;SDS011;16339;48.748;2.222;2023-08-31T00:41:09;10.55;;;3.65;;
29344;SDS011;16339;48.748;2.222;2023-08-31T00:43:40;7.10;;;3.50;;
29344;SDS011;16339;48.748;2.222;2023-08-31T00:46:09;9.30;;;3.60;;
29344;SDS011;16339;48.748;2.222;2023-08-31T00:48:37;12.57;;;3.75;;
29344;SDS011;16339;48.748;2.222;2023-08-31T00:51:07;7.13;;;3.30;;
29344;SDS011;16339;48.748;2.222;2023-08-31T00:53:36;17.60;;;3.95;;
29344;SDS011;16339;48.748;2.222;2023-08-31T00:56:07;6.93;;;3.50;;
29344;SDS011;16339;48.748;2.222;2023-08-31T00:58:38;13.13;;;3.22;;
29344;SDS011;16339;48.748;2.222;2023-08-31T01:01:08;10.32;;;3.25;;
29344;SDS011;16339;48.748;2.222;2023-08-31T01:03:50;14.13;;;3.53;;
29344;SDS011;16339;48.748;2.222;2023-08-31T01:06:29;10.00;;;3.40;;
29344;SDS011;16339;48.748;2.222;2023-08-31T01:09:10;10.50;;;3.95;;
29344;SDS011;16339;48.748;2.222;2023-08-31T01:11:49;9.57;;;3.45;;
29344;SDS011;16339;48.748;2.222;2023-08-31T01:14:32;10.63;;;3.75;;
29344;SDS011;16339;48.748;2.222;2023-08-31T01:17:05;6.25;;;3.15;;
29344;SDS011;16339;48.748;2.222;2023-08-31T01:19:42;9.95;;;3.55;;
29344;SDS011;16339;48.748;2.222;2023-08-31T01:22:16;10.40;;;3.45;;
29344;SDS011;16339;48.748;2.222;2023-08-31T01:24:55;13.02;;;3.70;;
29344;SDS011;16339;48.748;2.222;2023-08-31T01:27:26;7.93;;;3.10;;
29344;SDS011;16339;48.748;2.222;2023-08-31T01:29:55;12.40;;;5.50;;
29344;SDS011;16339;48.748;2.222;2023-08-31T01:32:24;15.98;;;5.72;;
29344;SDS011;16339;48.748;2.222;2023-08-31T01:34:53;9.15;;;3.60;;
29344;SDS011;16339;48.748;2.222;2023-08-31T01:37:26;8.98;;;3.80;;
29344;SDS011;16339;48.748;2.222;2023-08-31T01:40:02;12.77;;;3.45;;
29344;SDS011;16339;48.748;2.222;2023-08-31T01:42:37;10.23;;;3.33;;
29344;SDS011;16339;48.748;2.222;2023-08-31T01:45:07;8.40;;;3.08;;
29344;SDS011;16339;48.748;2.222;2023-08-31T01:47:38;7.25;;;3.42;;
29344;SDS011;16339;48.748;2.222;2023-08-31T01:50:07;9.27;;;4.07;;
29344;SDS011;16339;48.748;2.222;2023-08-31T01:52:36;10.50;;;3.95;;
29344;SDS011;16339;48.748;2.222;2023-08-31T01:55:08;7.90;;;3.42;;
29344;SDS011;16339;48.748;2.222;2023-08-31T01:57:38;6.60;;;3.13;;
29344;SDS011;16339;48.748;2.222;2023-08-31T02:00:07;8.35;;;3.10;;
29344;SDS011;16339;48.748;2.222;2023-08-31T02:02:37;7.15;;;3.58;;
29344;SDS011;16339;48.748;2.222;2023-08-31T02:05:06;12.40;;;3.05;;
29344;SDS011;16339;48.748;2.222;2023-08-31T02:07:36;8.85;;;3.50;;
29344;SDS011;16339;48.748;2.222;2023-08-31T02:10:08;10.23;;;3.40;;
29344;SDS011;16339;48.748;2.222;2023-08-31T02:12:37;10.07;;;3.78;;
29344;SDS011;16339;48.748;2.222;2023-08-31T02:15:06;11.80;;;3.17;;
29344;SDS011;16339;48.748;2.222;2023-08-31T02:17:35;9.98;;;3.30;;
29344;SDS011;16339;48.748;2.222;2023-08-31T02:20:05;15.50;;;3.38;;
29344;SDS011;16339;48.748;2.222;2023-08-31T02:22:35;15.43;;;3.67;;
29344;SDS011;16339;48.748;2.222;2023-08-31T02:25:03;4.80;;;3.05;;
29344;SDS011;16339;48.748;2.222;2023-08-31T02:27:35;9.98;;;3.40;;
29344;SDS011;16339;48.748;2.222;2023-08-31T02:32:34;11.05;;;3.10;;
29344;SDS011;16339;48.748;2.222;2023-08-31T02:35:03;7.40;;;3.28;;
29344;SDS011;16339;48.748;2.222;2023-08-31T02:37:32;10.95;;;3.10;;
29344;SDS011;16339;48.748;2.222;2023-08-31T02:40:01;13.80;;;2.95;;
29344;SDS011;16339;48.748;2.222;2023-08-31T02:42:30;10.93;;;3.42;;
29344;SDS011;16339;48.748;2.222;2023-08-31T02:45:01;11.13;;;3.47;;
29344;SDS011;16339;48.748;2.222;2023-08-31T02:47:30;8.60;;;3.22;;
29344;SDS011;16339;48.748;2.222;2023-08-31T02:49:59;11.85;;;3.15;;
29344;SDS011;16339;48.748;2.222;2023-08-31T02:52:28;8.82;;;3.47;;
29344;SDS011;16339;48.748;2.222;2023-08-31T02:54:56;7.25;;;2.80;;
29344;SDS011;16339;48.748;2.222;2023-08-31T02:57:25;5.95;;;2.95;;
29344;SDS011;16339;48.748;2.222;2023-08-31T02:59:54;7.85;;;3.70;;
29344;SDS011;16339;48.748;2.222;2023-08-31T03:02:25;7.82;;;3.28;;
29344;SDS011;16339;48.748;2.222;2023-08-31T03:07:23;9.00;;;3.17;;
29344;SDS011;16339;48.748;2.222;2023-08-31T03:09:52;8.70;;;3.30;;
29344;SDS011;16339;48.748;2.222;2023-08-31T03:12:20;10.60;;;3.25;;
29344;SDS011;16339;48.748;2.222;2023-08-31T03:14:49;10.02;;;3.20;;
29344;SDS011;16339;48.748;2.222;2023-08-31T03:17:18;9.43;;;3.08;;
29344;SDS011;16339;48.748;2.222;2023-08-31T03:19:49;14.85;;;3.03;;
29344;SDS011;16339;48.748;2.222;2023-08-31T03:24:46;9.02;;;3.30;;
29344;SDS011;16339;48.748;2.222;2023-08-31T03:27:15;12.32;;;3.35;;
29344;SDS011;16339;48.748;2.222;2023-08-31T03:29:44;10.70;;;2.65;;
29344;SDS011;16339;48.748;2.222;2023-08-31T03:32:13;11.43;;;3.40;;
29344;SDS011;16339;48.748;2.222;2023-08-31T03:34:41;9.45;;;3.03;;
29344;SDS011;16339;48.748;2.222;2023-08-31T03:37:13;6.13;;;2.90;;
29344;SDS011;16339;48.748;2.222;2023-08-31T03:39:41;7.97;;;3.10;;
29344;SDS011;16339;48.748;2.222;2023-08-31T03:42:10;8.68;;;3.10;;
29344;SDS011;16339;48.748;2.222;2023-08-31T03:44:39;7.78;;;3.15;;
29344;SDS011;16339;48.748;2.222;2023-08-31T03:47:08;12.30;;;4.00;;
29344;SDS011;16339;48.748;2.222;2023-08-31T03:49:36;7.60;;;3.25;;
29344;SDS011;16339;48.748;2.222;2023-08-31T03:52:05;14.40;;;3.97;;
29344;SDS011;16339;48.748;2.222;2023-08-31T03:54:36;7.57;;;3.03;;
29344;SDS011;16339;48.748;2.222;2023-08-31T03:59:34;8.60;;;3.13;;
29344;SDS011;16339;48.748;2.222;2023-08-31T04:02:00;8.00;;;3.65;;
29344;SDS011;16339;48.748;2.222;2023-08-31T04:04:29;7.85;;;3.42;;
29344;SDS011;16339;48.748;2.222;2023-08-31T04:06:59;10.30;;;3.22;;
29344;SDS011;16339;48.748;2.222;2023-08-31T04:09:28;8.93;;;3.22;;
29344;SDS011;16339;48.748;2.222;2023-08-31T04:12:00;8.25;;;3.13;;
29344;SDS011;16339;48.748;2.222;2023-08-31T04:16:57;10.13;;;3.30;;
29344;SDS011;16339;48.748;2.222;2023-08-31T04:19:26;9.57;;;3.40;;
29344;SDS011;16339;48.748;2.222;2023-08-31T04:21:55;9.48;;;3.15;;
29344;SDS011;16339;48.748;2.222;2023-08-31T04:24:23;12.65;;;3.38;;
29344;SDS011;16339;48.748;2.222;2023-08-31T04:26:52;8.32;;;3.50;;
29344;SDS011;16339;48.748;2.222;2023-08-31T04:29:24;10.82;;;3.88;;
29344;SDS011;16339;48.748;2.222;2023-08-31T04:31:52;10.10;;;3.58;;
29344;SDS011;16339;48.748;2.222;2023-08-31T04:34:21;10.45;;;3.63;;
29344;SDS011;16339;48.748;2.222;2023-08-31T04:36:50;9.05;;;3.33;;
29344;SDS011;16339;48.748;2.222;2023-08-31T04:39:18;14.73;;;3.30;;
29344;SDS011;16339;48.748;2.222;2023-08-31T04:41:47;9.82;;;3.40;;
29344;SDS011;16339;48.748;2.222;2023-08-31T04:44:16;12.90;;;3.20;;
29344;SDS011;16339;48.748;2.222;2023-08-31T04:46:47;12.18;;;3.45;;
29344;SDS011;16339;48.748;2.222;2023-08-31T04:49:16;14.13;;;3.88;;
29344;SDS011;16339;48.748;2.222;2023-08-31T04:51:45;10.07;;;3.55;;
29344;SDS011;16339;48.748;2.222;2023-08-31T04:54:13;14.73;;;3.78;;
29344;SDS011;16339;48.748;2.222;2023-08-31T04:56:42;20.27;;;4.32;;
29344;SDS011;16339;48.748;2.222;2023-08-31T04:59:11;12.27;;;3.35;;
29344;SDS011;16339;48.748;2.222;2023-08-31T05:01:40;8.63;;;3.17;;
29344;SDS011;16339;48.748;2.222;2023-08-31T05:04:11;8.60;;;3.45;;
29344;SDS011;16339;48.748;2.222;2023-08-31T05:06:39;14.80;;;3.72;;
29344;SDS011;16339;48.748;2.222;2023-08-31T05:09:08;13.90;;;3.63;;
29344;SDS011;16339;48.748;2.222;2023-08-31T05:11:37;12.60;;;3.80;;
29344;SDS011;16339;48.748;2.222;2023-08-31T05:14:06;6.80;;;3.65;;
29344;SDS011;16339;48.748;2.222;2023-08-31T05:16:34;8.50;;;3.63;;
29344;SDS011;16339;48.748;2.222;2023-08-31T05:19:03;15.73;;;3.85;;
29344;SDS011;16339;48.748;2.222;2023-08-31T05:21:35;9.38;;;3.72;;
29344;SDS011;16339;48.748;2.222;2023-08-31T05:24:04;12.88;;;3.80;;
29344;SDS011;16339;48.748;2.222;2023-08-31T05:26:33;10.20;;;3.92;;
29344;SDS011;16339;48.748;2.222;2023-08-31T05:29:02;16.05;;;5.38;;
29344;SDS011;16339;48.748;2.222;2023-08-31T05:31:31;15.50;;;4.70;;
29344;SDS011;16339;48.748;2.222;2023-08-31T05:34:00;13.95;;;4.45;;
29344;SDS011;16339;48.748;2.222;2023-08-31T05:36:28;10.43;;;3.85;;
29344;SDS011;16339;48.748;2.222;2023-08-31T05:39:00;9.95;;;3.35;;
29344;SDS011;16339;48.748;2.222;2023-08-31T05:41:29;17.45;;;4.20;;
29344;SDS011;16339;48.748;2.222;2023-08-31T05:43:58;11.27;;;3.70;;
29344;SDS011;16339;48.748;2.222;2023-08-31T05:46:26;11.88;;;3.90;;
29344;SDS011;16339;48.748;2.222;2023-08-31T05:48:55;11.57;;;3.60;;
29344;SDS011;16339;48.748;2.222;2023-08-31T05:51:24;18.08;;;4.70;;
29344;SDS011;16339;48.748;2.222;2023-08-31T05:53:52;13.10;;;3.88;;
29344;SDS011;16339;48.748;2.222;2023-08-31T05:56:24;15.20;;;3.95;;
29344;SDS011;16339;48.748;2.222;2023-08-31T06:01:21;22.58;;;3.50;;
29344;SDS011;16339;48.748;2.222;2023-08-31T06:03:50;11.73;;;3.97;;
29344;SDS011;16339;48.748;2.222;2023-08-31T06:06:19;10.07;;;3.70;;
29344;SDS011;16339;48.748;2.222;2023-08-31T06:08:47;11.05;;;3.53;;
29344;SDS011;16339;48.748;2.222;2023-08-31T06:11:16;11.32;;;3.55;;
29344;SDS011;16339;48.748;2.222;2023-08-31T06:13:47;17.38;;;3.78;;
29344;SDS011;16339;48.748;2.222;2023-08-31T06:16:16;15.30;;;3.47;;
29344;SDS011;16339;48.748;2.222;2023-08-31T06:18:45;10.43;;;3.35;;
29344;SDS011;16339;48.748;2.222;2023-08-31T06:21:13;12.18;;;3.75;;
29344;SDS011;16339;48.748;2.222;2023-08-31T06:23:42;19.27;;;2.95;;
29344;SDS011;16339;48.748;2.222;2023-08-31T06:26:11;12.85;;;3.75;;
29344;SDS011;16339;48.748;2.222;2023-08-31T06:28:39;15.63;;;3.70;;
29344;SDS011;16339;48.748;2.222;2023-08-31T06:31:11;22.50;;;4.18;;
29344;SDS011;16339;48.748;2.222;2023-08-31T06:33:39;12.60;;;3.33;;
29344;SDS011;16339;48.748;2.222;2023-08-31T06:36:08;14.27;;;3.42;;
29344;SDS011;16339;48.748;2.222;2023-08-31T06:38:37;10.50;;;3.17;;
29344;SDS011;16339;48.748;2.222;2023-08-31T06:41:06;20.95;;;3.85;;
29344;SDS011;16339;48.748;2.222;2023-08-31T06:43:35;15.25;;;3.72;;
29344;SDS011;16339;48.748;2.222;2023-08-31T06:46:03;12.98;;;3.20;;
29344;SDS011;16339;48.748;2.222;2023-08-31T06:48:35;11.60;;;3.58;;
29344;SDS011;16339;48.748;2.222;2023-08-31T06:53:32;17.20;;;3.90;;
29344;SDS011;16339;48.748;2.222;2023-08-31T06:56:01;11.57;;;3.50;;
29344;SDS011;16339;48.748;2.222;2023-08-31T06:58:29;17.02;;;3.80;;
29344;SDS011;16339;48.748;2.222;2023-08-31T07:00:58;17.63;;;3.97;;
29344;SDS011;16339;48.748;2.222;2023-08-31T07:03:27;23.85;;;3.97;;
29344;SDS011;16339;48.748;2.222;2023-08-31T07:05:59;19.70;;;3.97;;
29344;SDS011;16339;48.748;2.222;2023-08-31T07:08:28;14.07;;;3.50;;
29344;SDS011;16339;48.748;2.222;2023-08-31T07:10:57;13.70;;;3.67;;
29344;SDS011;16339;48.748;2.222;2023-08-31T07:13:25;12.93;;;3.55;;
29344;SDS011;16339;48.748;2.222;2023-08-31T07:15:54;23.02;;;3.90;;
29344;SDS011;16339;48.748;2.222;2023-08-31T07:18:23;13.88;;;4.25;;
29344;SDS011;16339;48.748;2.222;2023-08-31T07:20:51;12.95;;;3.92;;
29344;SDS011;16339;48.748;2.222;2023-08-31T07:23:23;16.33;;;4.28;;
29344;SDS011;16339;48.748;2.222;2023-08-31T07:25:51;22.10;;;4.35;;
29344;SDS011;16339;48.748;2.222;2023-08-31T07:28:20;12.00;;;3.10;;
29344;SDS011;16339;48.748;2.222;2023-08-31T07:30:49;13.48;;;3.40;;
29344;SDS011;16339;48.748;2.222;2023-08-31T07:33:28;17.30;;;3.88;;
29344;SDS011;16339;48.748;2.222;2023-08-31T07:35:58;13.18;;;3.40;;
29344;SDS011;16339;48.748;2.222;2023-08-31T07:38:30;11.05;;;3.60;;
29344;SDS011;16339;48.748;2.222;2023-08-31T07:41:00;14.10;;;3.30;;
29344;SDS011;16339;48.748;2.222;2023-08-31T07:43:29;12.98;;;3.30;;
29344;SDS011;16339;48.748;2.222;2023-08-31T07:45:58;15.30;;;3.90;;
29344;SDS011;16339;48.748;2.222;2023-08-31T07:48:26;15.48;;;3.15;;
29344;SDS011;16339;48.748;2.222;2023-08-31T07:50:55;17.13;;;3.63;;
29344;SDS011;16339;48.748;2.222;2023-08-31T07:53:24;10.88;;;3.42;;
29344;SDS011;16339;48.748;2.222;2023-08-31T07:55:56;13.95;;;3.38;;
29344;SDS011;16339;48.748;2.222;2023-08-31T07:58:25;9.40;;;3.30;;
29344;SDS011;16339;48.748;2.222;2023-08-31T08:00:54;12.57;;;3.38;;
29344;SDS011;16339;48.748;2.222;2023-08-31T08:03:23;13.95;;;3.00;;
29344;SDS011;16339;48.748;2.222;2023-08-31T08:05:53;21.85;;;3.47;;
29344;SDS011;16339;48.748;2.222;2023-08-31T08:08:23;18.13;;;3.08;;
29344;SDS011;16339;48.748;2.222;2023-08-31T08:10:52;13.38;;;3.25;;
29344;SDS011;16339;48.748;2.222;2023-08-31T08:13:25;12.75;;;3.13;;
29344;SDS011;16339;48.748;2.222;2023-08-31T08:15:53;16.73;;;3.40;;
29344;SDS011;16339;48.748;2.222;2023-08-31T08:18:22;16.83;;;3.05;;
29344;SDS011;16339;48.748;2.222;2023-08-31T08:20:51;18.23;;;2.88;;
29344;SDS011;16339;48.748;2.222;2023-08-31T08:23:19;10.35;;;2.85;;
29344;SDS011;16339;48.748;2.222;2023-08-31T08:25:48;17.52;;;3.17;;
29344;SDS011;16339;48.748;2.222;2023-08-31T08:28:20;14.85;;;3.13;;
29344;SDS011;16339;48.748;2.222;2023-08-31T08:33:17;19.88;;;3.75;;
29344;SDS011;16339;48.748;2.222;2023-08-31T08:35:46;19.63;;;3.20;;
29344;SDS011;16339;48.748;2.222;2023-08-31T08:38:14;16.10;;;3.33;;
29344;SDS011;16339;48.748;2.222;2023-08-31T08:40:43;13.45;;;3.13;;
29344;SDS011;16339;48.748;2.222;2023-08-31T08:43:12;16.08;;;2.97;;
29344;SDS011;16339;48.748;2.222;2023-08-31T08:45:45;14.88;;;3.20;;
29344;SDS011;16339;48.748;2.222;2023-08-31T08:48:15;8.77;;;2.72;;
29344;SDS011;16339;48.748;2.222;2023-08-31T08:50:45;15.57;;;2.90;;
29344;SDS011;16339;48.748;2.222;2023-08-31T08:53:14;8.82;;;2.72;;
29344;SDS011;16339;48.748;2.222;2023-08-31T08:55:43;6.70;;;2.58;;
29344;SDS011;16339;48.748;2.222;2023-08-31T08:58:11;16.48;;;3.08;;
29344;SDS011;16339;48.748;2.222;2023-08-31T09:00:40;14.95;;;3.15;;
29344;SDS011;16339;48.748;2.222;2023-08-31T09:03:13;15.60;;;2.80;;
29344;SDS011;16339;48.748;2.222;2023-08-31T09:08:10;17.55;;;3.28;;
29344;SDS011;16339;48.748;2.222;2023-08-31T09:10:41;13.02;;;3.00;;
29344;SDS011;16339;48.748;2.222;2023-08-31T09:13:11;16.48;;;3.58;;
29344;SDS011;16339;48.748;2.222;2023-08-31T09:15:41;14.55;;;3.45;;
29344;SDS011;16339;48.748;2.222;2023-08-31T09:20:50;9.27;;;2.78;;
29344;SDS011;16339;48.748;2.222;2023-08-31T09:23:21;11.25;;;3.03;;
29344;SDS011;16339;48.748;2.222;2023-08-31T09:25:51;24.63;;;3.20;;
29344;SDS011;16339;48.748;2.222;2023-08-31T09:28:21;14.98;;;2.97;;
29344;SDS011;16339;48.748;2.222;2023-08-31T09:30:52;12.60;;;3.50;;
29344;SDS011;16339;48.748;2.222;2023-08-31T09:33:24;15.38;;;3.20;;
29344;SDS011;16339;48.748;2.222;2023-08-31T09:38:22;9.45;;;3.15;;
29344;SDS011;16339;48.748;2.222;2023-08-31T09:40:50;10.00;;;3.20;;
29344;SDS011;16339;48.748;2.222;2023-08-31T09:43:19;17.25;;;3.45;;
29344;SDS011;16339;48.748;2.222;2023-08-31T09:45:49;17.63;;;4.05;;
29344;SDS011;16339;48.748;2.222;2023-08-31T09:48:18;17.98;;;3.55;;
29344;SDS011;16339;48.748;2.222;2023-08-31T09:50:50;13.32;;;2.92;;
29344;SDS011;16339;48.748;2.222;2023-08-31T09:53:20;9.88;;;3.28;;
29344;SDS011;16339;48.748;2.222;2023-08-31T09:55:49;11.82;;;3.28;;
29344;SDS011;16339;48.748;2.222;2023-08-31T09:58:20;20.73;;;3.60;;
29344;SDS011;16339;48.748;2.222;2023-08-31T10:00:50;9.40;;;3.20;;
29344;SDS011;16339;48.748;2.222;2023-08-31T10:03:20;14.83;;;2.87;;
29344;SDS011;16339;48.748;2.222;2023-08-31T10:05:51;17.70;;;3.25;;
29344;SDS011;16339;48.748;2.222;2023-08-31T10:08:22;15.10;;;3.17;;
29344;SDS011;16339;48.748;2.222;2023-08-31T10:13:22;18.50;;;3.65;;
29344;SDS011;16339;48.748;2.222;2023-08-31T10:15:52;22.42;;;3.38;;
29344;SDS011;16339;48.748;2.222;2023-08-31T10:18:21;14.20;;;3.88;;
29344;SDS011;16339;48.748;2.222;2023-08-31T10:20:52;13.13;;;3.42;;
29344;SDS011;16339;48.748;2.222;2023-08-31T10:25:59;14.05;;;3.28;;
29344;SDS011;16339;48.748;2.222;2023-08-31T10:28:29;13.75;;;3.30;;
29344;SDS011;16339;48.748;2.222;2023-08-31T10:31:06;14.15;;;3.13;;
29344;SDS011;16339;48.748;2.222;2023-08-31T10:33:39;16.45;;;2.85;;
29344;SDS011;16339;48.748;2.222;2023-08-31T10:36:12;12.20;;;3.28;;
29344;SDS011;16339;48.748;2.222;2023-08-31T10:38:42;13.50;;;2.90;;
29344;SDS011;16339;48.748;2.222;2023-08-31T10:41:17;13.93;;;3.10;;
29344;SDS011;16339;48.748;2.222;2023-08-31T10:43:48;11.45;;;2.88;;
29344;SDS011;16339;48.748;2.222;2023-08-31T10:46:25;14.38;;;3.58;;
29344;SDS011;16339;48.748;2.222;2023-08-31T10:48:59;15.73;;;3.05;;
29344;SDS011;16339;48.748;2.222;2023-08-31T10:51:32;18.80;;;3.30;;
29344;SDS011;16339;48.748;2.222;2023-08-31T10:54:07;11.23;;;3.00;;
29344;SDS011;16339;48.748;2.222;2023-08-31T10:56:53;20.88;;;3.92;;
29344;SDS011;16339;48.748;2.222;2023-08-31T10:59:41;18.05;;;3.10;;
29344;SDS011;16339;48.748;2.222;2023-08-31T11:02:26;17.08;;;3.25;;
29344;SDS011;16339;48.748;2.222;2023-08-31T11:04:59;21.50;;;3.38;;
29344;SDS011;16339;48.748;2.222;2023-08-31T11:07:32;11.63;;;3.05;;
29344;SDS011;16339;48.748;2.222;2023-08-31T11:10:09;10.32;;;3.35;;
29344;SDS011;16339;48.748;2.222;2023-08-31T11:12:40;9.65;;;2.78;;
29344;SDS011;16339;48.748;2.222;2023-08-31T11:15:12;10.23;;;2.70;;
29344;SDS011;16339;48.748;2.222;2023-08-31T11:17:42;12.93;;;2.55;;
29344;SDS011;16339;48.748;2.222;2023-08-31T11:20:15;5.40;;;2.10;;
29344;SDS011;16339;48.748;2.222;2023-08-31T11:22:48;9.13;;;2.85;;
29344;SDS011;16339;48.748;2.222;2023-08-31T11:25:18;11.05;;;2.80;;
29344;SDS011;16339;48.748;2.222;2023-08-31T11:27:55;17.10;;;3.17;;
29344;SDS011;16339;48.748;2.222;2023-08-31T11:30:24;12.93;;;2.70;;
29344;SDS011;16339;48.748;2.222;2023-08-31T11:32:56;13.02;;;2.95;;
29344;SDS011;16339;48.748;2.222;2023-08-31T11:35:31;14.13;;;2.78;;
29344;SDS011;16339;48.748;2.222;2023-08-31T11:38:04;9.70;;;2.53;;
29344;SDS011;16339;48.748;2.222;2023-08-31T11:40:34;10.20;;;2.25;;
29344;SDS011;16339;48.748;2.222;2023-08-31T11:43:04;8.55;;;2.00;;
29344;SDS011;16339;48.748;2.222;2023-08-31T11:45:33;7.75;;;1.98;;
29344;SDS011;16339;48.748;2.222;2023-08-31T11:48:04;11.65;;;2.30;;
29344;SDS011;16339;48.748;2.222;2023-08-31T11:50:34;10.05;;;2.55;;
29344;SDS011;16339;48.748;2.222;2023-08-31T11:53:07;12.98;;;2.47;;
29344;SDS011;16339;48.748;2.222;2023-08-31T11:55:36;12.50;;;2.45;;
29344;SDS011;16339;48.748;2.222;2023-08-31T11:58:17;10.00;;;3.10;;
29344;SDS011;16339;48.748;2.222;2023-08-31T12:00:45;9.18;;;2.83;;
29344;SDS011;16339;48.748;2.222;2023-08-31T12:03:22;11.20;;;2.55;;
29344;SDS011;16339;48.748;2.222;2023-08-31T12:05:52;8.18;;;2.50;;
29344;SDS011;16339;48.748;2.222;2023-08-31T12:08:26;14.98;;;2.47;;
29344;SDS011;16339;48.748;2.222;2023-08-31T12:10:55;12.90;;;2.95;;
29344;SDS011;16339;48.748;2.222;2023-08-31T12:13:25;12.77;;;2.65;;
29344;SDS011;16339;48.748;2.222;2023-08-31T12:15:57;13.13;;;2.75;;
29344;SDS011;16339;48.748;2.222;2023-08-31T12:18:29;8.85;;;2.50;;
29344;SDS011;16339;48.748;2.222;2023-08-31T12:20:58;9.13;;;2.45;;
29344;SDS011;16339;48.748;2.222;2023-08-31T12:23:31;7.87;;;2.97;;
29344;SDS011;16339;48.748;2.222;2023-08-31T12:26:00;13.95;;;2.83;;
29344;SDS011;16339;48.748;2.222;2023-08-31T12:28:30;7.13;;;2.28;;
29344;SDS011;16339;48.748;2.222;2023-08-31T12:30:59;12.38;;;2.90;;
29344;SDS011;16339;48.748;2.222;2023-08-31T12:33:29;11.23;;;2.80;;
29344;SDS011;16339;48.748;2.222;2023-08-31T12:35:58;10.13;;;2.88;;
29344;SDS011;16339;48.748;2.222;2023-08-31T12:38:27;9.77;;;2.58;;
29344;SDS011;16339;48.748;2.222;2023-08-31T12:40:59;18.52;;;3.58;;
29344;SDS011;16339;48.748;2.222;2023-08-31T12:45:56;10.05;;;3.30;;
29344;SDS011;16339;48.748;2.222;2023-08-31T12:48:25;13.13;;;3.42;;
29344;SDS011;16339;48.748;2.222;2023-08-31T12:50:54;9.77;;;3.60;;
29344;SDS011;16339;48.748;2.222;2023-08-31T12:53:23;17.80;;;3.58;;
29344;SDS011;16339;48.748;2.222;2023-08-31T12:55:52;11.70;;;3.35;;
29344;SDS011;16339;48.748;2.222;2023-08-31T12:58:23;12.45;;;4.15;;
29344;SDS011;16339;48.748;2.222;2023-08-31T13:00:52;14.50;;;3.88;;
29344;SDS011;16339;48.748;2.222;2023-08-31T13:03:21;11.38;;;3.38;;
29344;SDS011;16339;48.748;2.222;2023-08-31T13:05:50;8.25;;;3.25;;
29344;SDS011;16339;48.748;2.222;2023-08-31T13:08:19;7.25;;;3.33;;
29344;SDS011;16339;48.748;2.222;2023-08-31T13:10:51;14.02;;;3.45;;
29344;SDS011;16339;48.748;2.222;2023-08-31T13:13:21;7.65;;;2.85;;
29344;SDS011;16339;48.748;2.222;2023-08-31T13:15:52;7.97;;;2.78;;
29344;SDS011;16339;48.748;2.222;2023-08-31T13:18:21;9.32;;;3.00;;
29344;SDS011;16339;48.748;2.222;2023-08-31T13:20:50;5.28;;;2.63;;
29344;SDS011;16339;48.748;2.222;2023-08-31T13:23:19;7.15;;;2.53;;
29344;SDS011;16339;48.748;2.222;2023-08-31T13:25:48;6.90;;;2.35;;
29344;SDS011;16339;48.748;2.222;2023-08-31T13:28:17;5.45;;;2.05;;
29344;SDS011;16339;48.748;2.222;2023-08-31T13:30:49;3.13;;;1.73;;
29344;SDS011;16339;48.748;2.222;2023-08-31T13:33:18;9.93;;;2.22;;
29344;SDS011;16339;48.748;2.222;2023-08-31T13:35:49;3.22;;;1.90;;
29344;SDS011;16339;48.748;2.222;2023-08-31T13:38:18;4.47;;;2.08;;
29344;SDS011;16339;48.748;2.222;2023-08-31T13:40:47;8.82;;;2.08;;
29344;SDS011;16339;48.748;2.222;2023-08-31T13:43:21;3.53;;;1.98;;
29344;SDS011;16339;48.748;2.222;2023-08-31T13:45:53;3.13;;;1.90;;
29344;SDS011;16339;48.748;2.222;2023-08-31T13:50:50;4.10;;;2.10;;
29344;SDS011;16339;48.748;2.222;2023-08-31T13:53:19;3.75;;;1.52;;
29344;SDS011;16339;48.748;2.222;2023-08-31T13:55:48;3.85;;;1.70;;
29344;SDS011;16339;48.748;2.222;2023-08-31T13:58:16;3.72;;;1.73;;
29344;SDS011;16339;48.748;2.222;2023-08-31T14:00:45;2.80;;;1.73;;
29344;SDS011;16339;48.748;2.222;2023-08-31T14:03:17;3.08;;;1.80;;
29344;SDS011;16339;48.748;2.222;2023-08-31T14:08:15;1.50;;;1.30;;
29344;SDS011;16339;48.748;2.222;2023-08-31T14:10:44;3.95;;;1.42;;
29344;SDS011;16339;48.748;2.222;2023-08-31T14:13:12;2.78;;;1.45;;
29344;SDS011;16339;48.748;2.222;2023-08-31T14:15:44;4.53;;;1.70;;
29344;SDS011;16339;48.748;2.222;2023-08-31T14:18:13;4.45;;;1.80;;
29344;SDS011;16339;48.748;2.222;2023-08-31T14:20:44;1.92;;;1.45;;
29344;SDS011;16339;48.748;2.222;2023-08-31T14:25:41;2.83;;;1.50;;
29344;SDS011;16339;48.748;2.222;2023-08-31T14:28:10;2.10;;;1.35;;
29344;SDS011;16339;48.748;2.222;2023-08-31T14:30:39;2.25;;;1.15;;
29344;SDS011;16339;48.748;2.222;2023-08-31T14:33:08;5.00;;;1.70;;
29344;SDS011;16339;48.748;2.222;2023-08-31T14:35:37;2.03;;;1.42;;
29344;SDS011;16339;48.748;2.222;2023-08-31T14:38:09;1.90;;;1.10;;
29344;SDS011;16339;48.748;2.222;2023-08-31T14:40:38;1.60;;;1.50;;
29344;SDS011;16339;48.748;2.222;2023-08-31T14:43:07;2.88;;;1.70;;
29344;SDS011;16339;48.748;2.222;2023-08-31T14:45:36;1.90;;;1.70;;
29344;SDS011;16339;48.748;2.222;2023-08-31T14:48:06;3.28;;;1.52;;
29344;SDS011;16339;48.748;2.222;2023-08-31T14:50:36;4.53;;;1.80;;
29344;SDS011;16339;48.748;2.222;2023-08-31T14:53:12;3.63;;;1.63;;
29344;SDS011;16339;48.748;2.222;2023-08-31T14:55:41;4.32;;;1.85;;
29344;SDS011;16339;48.748;2.222;2023-08-31T14:58:16;5.57;;;2.25;;
29344;SDS011;16339;48.748;2.222;2023-08-31T15:00:45;6.00;;;1.98;;
29344;SDS011;16339;48.748;2.222;2023-08-31T15:03:13;1.83;;;1.63;;
29344;SDS011;16339;48.748;2.222;2023-08-31T15:05:42;2.92;;;1.80;;
29344;SDS011;16339;48.748;2.222;2023-08-31T15:08:13;5.30;;;1.80;;
29344;SDS011;16339;48.748;2.222;2023-08-31T15:13:10;2.75;;;1.85;;
29344;SDS011;16339;48.748;2.222;2023-08-31T15:15:39;3.58;;;2.25;;
29344;SDS011;16339;48.748;2.222;2023-08-31T15:18:12;2.10;;;1.95;;
29344;SDS011;16339;48.748;2.222;2023-08-31T15:20:41;2.83;;;2.00;;
29344;SDS011;16339;48.748;2.222;2023-08-31T15:23:09;6.32;;;2.30;;
29344;SDS011;16339;48.748;2.222;2023-08-31T15:28:09;3.50;;;2.20;;
29344;SDS011;16339;48.748;2.222;2023-08-31T15:30:38;2.30;;;1.90;;
29344;SDS011;16339;48.748;2.222;2023-08-31T15:33:07;3.28;;;2.08;;
29344;SDS011;16339;48.748;2.222;2023-08-31T15:35:35;5.75;;;2.60;;
29344;SDS011;16339;48.748;2.222;2023-08-31T15:38:04;4.60;;;2.38;;
29344;SDS011;16339;48.748;2.222;2023-08-31T15:40:36;4.30;;;2.83;;
29344;SDS011;16339;48.748;2.222;2023-08-31T15:45:33;5.65;;;2.55;;
29344;SDS011;16339;48.748;2.222;2023-08-31T15:48:02;3.30;;;2.58;;